Washington, DC

8:27 AM EDT on August 27, 2016 (GMT -0400)
Eckington Pl, NE | | Change Station

Elev 90 ft 38.91 °N, 77.01 °W | Updated 4 minutes ago

Scattered Clouds
Scattered Clouds
81.6 °F
Feels Like 85 °F
N
3.0
Wind Variable Wind from NNE
Gusts 6.0 mph

Today
High -- | Low -- °F
--% Chance of Precip.
Yesterday
High -- | Low -- °F
Precip. -- in
Pressure 30.17 in
Visibility 10.0 miles
Clouds Few 10000 ft
Scattered Clouds 25000 ft
Heat Index 85 °F
Dew Point 70 °F
Humidity 69%
Rainfall Not available.
Snow Depth Not available.
6:32 AM 7:45 PM
Waning Crescent, 25% visible
METAR KDCA 271152Z 03005KT 10SM FEW100 SCT250 27/21 A3017 RMK AO2 SLP215 T02720211 10283 20261 51019 $
Pressure 30.17 in
Visibility 10.0 miles
Clouds Few 10000 ft
Scattered Clouds 25000 ft
Heat Index 85 °F
Dew Point 70 °F
Humidity 69%
Rainfall Not available.
Snow Depth Not available.
6:32 AM 7:45 PM
Waning Crescent, 25% visible
METAR KDCA 271152Z 03005KT 10SM FEW100 SCT250 27/21 A3017 RMK AO2 SLP215 T02720211 10283 20261 51019 $

10-Day Weather Forecast

Almanac

Astronomy

Aug. 27, 2016 Rise Set
Actual Time
Civil Twilight
Nautical Twilight
Astronomical Twilight
Moon
Length of Visible Light
Length of Day
Tomorrow will be .
, % of the Moon is Illuminated

Today's Extremes

State Highs State Lows

Community

WunderPhotos

Upload Photos

1,935,325 photos uploaded!

WunderBlog® & News

Nearby

Air Quality

  Air Quality AQ Index Pollutant
Not available.

Snow Depth

Station Depth Elevation

Earthquake Activity

City Distance Mag. Time & Date
Minimum magnitude displayed is 2.5.

Coastal Water Temperatures

Place Temperature

Stations

Nearby Weather Stations

Station Location Temp. Windchill Dew Point Humidity Wind Precip. Elev Updated Type
                   

Watches & Warnings

There are currently no watches in effect.